Time;durP1;ratioP1;P1;durP2;ratioP2;P2;SDS_P1;SDS_P2;PMS_P1;PMS_P2;Temp;Humidity;BMP_temperature;BMP_pressure;BME280_temperature;BME280_humidity;BME280_pressure;Samples;Min_cycle;Max_cycle;Signal;HPM_P1;HPM_P2
2022/06/15 00:00:02;;;;;;;14.45;7.40;;;;;;;;;;5077389;28;20105;-75
2022/06/15 00:02:28;;;;;;;11.73;7.57;;;;;;;;;;5086678;28;20425;-75
2022/06/15 00:04:54;;;;;;;11.48;7.53;;;;;;;;;;5101238;28;20036;-75
2022/06/15 00:07:20;;;;;;;9.13;6.07;;;;;;;;;;5078671;28;20040;-75
2022/06/15 00:09:46;;;;;;;15.88;7.55;;;;;;;;;;5082158;28;20157;-74
2022/06/15 00:12:13;;;;;;;11.60;6.57;;;;;;;;;;5075392;28;20055;-75
2022/06/15 00:14:39;;;;;;;9.70;6.55;;;;;;;;;;5080117;28;20079;-75
2022/06/15 00:17:05;;;;;;;10.30;7.85;;;;;;;;;;5077063;28;20047;-75
2022/06/15 00:19:31;;;;;;;11.68;7.20;;;;;;;;;;5078507;28;20090;-75
2022/06/15 00:21:57;;;;;;;9.93;6.55;;;;;;;;;;5082023;28;20050;-75
2022/06/15 00:24:24;;;;;;;10.63;7.43;;;;;;;;;;5075414;28;20040;-75
2022/06/15 00:26:50;;;;;;;8.85;6.03;;;;;;;;;;5088674;28;20359;-75
2022/06/15 00:29:16;;;;;;;10.00;6.22;;;;;;;;;;5089470;28;20448;-75
2022/06/15 00:31:42;;;;;;;11.23;7.10;;;;;;;;;;5077568;28;20090;-75
2022/06/15 00:34:09;;;;;;;8.90;6.28;;;;;;;;;;5056821;28;20053;-75
2022/06/15 00:36:35;;;;;;;12.57;6.70;;;;;;;;;;5081536;28;20044;-75
2022/06/15 00:39:03;;;;;;;9.68;7.22;;;;;;;;;;5082884;28;20112;-75
2022/06/15 00:41:29;;;;;;;10.50;6.95;;;;;;;;;;5081169;28;20036;-74
2022/06/15 00:43:57;;;;;;;11.10;7.95;;;;;;;;;;5084509;28;20100;-74
2022/06/15 00:46:39;;;;;;;12.38;7.35;;;;;;;;;;5089643;28;20326;-75
2022/06/15 00:49:08;;;;;;;9.73;7.00;;;;;;;;;;5089337;28;20104;-74
2022/06/15 00:51:35;;;;;;;10.60;7.13;;;;;;;;;;5080563;28;20222;-74
2022/06/15 00:54:02;;;;;;;9.05;7.35;;;;;;;;;;5070849;28;20052;-75
2022/06/15 00:56:29;;;;;;;10.85;6.78;;;;;;;;;;5078008;28;20059;-74
2022/06/15 00:58:57;;;;;;;12.02;8.00;;;;;;;;;;5085744;28;20075;-75
2022/06/15 01:01:23;;;;;;;10.43;6.85;;;;;;;;;;5082079;28;20059;-75
2022/06/15 01:03:51;;;;;;;11.88;8.70;;;;;;;;;;5081833;28;20032;-75
2022/06/15 01:06:18;;;;;;;10.25;7.15;;;;;;;;;;5079785;28;20041;-73
2022/06/15 01:08:50;;;;;;;8.68;6.25;;;;;;;;;;5080953;28;20036;-75
2022/06/15 01:11:16;;;;;;;10.30;7.32;;;;;;;;;;5079128;28;20626;-75
2022/06/15 01:14:05;;;;;;;10.68;6.35;;;;;;;;;;5081098;28;20097;-75
2022/06/15 01:16:37;;;;;;;11.02;7.28;;;;;;;;;;5085588;28;20071;-74
2022/06/15 01:19:04;;;;;;;12.95;8.38;;;;;;;;;;5087335;28;20485;-75
2022/06/15 01:21:36;;;;;;;11.25;7.13;;;;;;;;;;5074394;28;20132;-75
2022/06/15 01:24:16;;;;;;;12.05;6.53;;;;;;;;;;5079290;28;20105;-75
2022/06/15 01:27:05;;;;;;;10.90;7.57;;;;;;;;;;5079329;28;20052;-74
2022/06/15 01:29:37;;;;;;;10.63;7.80;;;;;;;;;;5067975;28;20131;-75
2022/06/15 01:32:08;;;;;;;15.85;7.80;;;;;;;;;;5085401;28;20043;-74
2022/06/15 01:34:52;;;;;;;14.27;8.68;;;;;;;;;;5085289;28;20059;-74
2022/06/15 01:37:25;;;;;;;11.52;7.32;;;;;;;;;;5072418;28;20046;-75
2022/06/15 01:39:51;;;;;;;;;;;;;;;;;;5088332;28;20074;-75
2022/06/15 01:42:26;;;;;;;11.82;7.35;;;;;;;;;;5077431;28;20395;-75
2022/06/15 01:44:55;;;;;;;11.25;7.57;;;;;;;;;;5086874;28;20038;-75
2022/06/15 01:47:23;;;;;;;12.98;8.48;;;;;;;;;;5085668;28;20090;-75
2022/06/15 01:49:57;;;;;;;10.45;8.10;;;;;;;;;;5083913;28;20036;-74
2022/06/15 01:52:25;;;;;;;11.88;8.80;;;;;;;;;;5078635;28;20040;-74
2022/06/15 01:55:11;;;;;;;10.90;8.43;;;;;;;;;;5084132;28;20039;-74
2022/06/15 01:57:38;;;;;;;9.35;7.07;;;;;;;;;;5084030;28;20063;-75
2022/06/15 02:00:08;;;;;;;9.23;7.85;;;;;;;;;;5095190;28;20589;-75
2022/06/15 02:02:37;;;;;;;9.88;6.53;;;;;;;;;;5089564;28;20543;-75
2022/06/15 02:05:16;;;;;;;11.32;7.05;;;;;;;;;;5083620;28;20120;-75
2022/06/15 02:07:51;;;;;;;10.43;7.28;;;;;;;;;;5087829;28;20024;-74
2022/06/15 02:10:20;;;;;;;11.20;8.75;;;;;;;;;;5076280;28;20094;-74
2022/06/15 02:12:50;;;;;;;12.32;8.48;;;;;;;;;;5084244;28;20032;-75
2022/06/15 02:15:17;;;;;;;10.15;7.90;;;;;;;;;;5086653;28;20512;-74
2022/06/15 02:17:45;;;;;;;12.40;7.57;;;;;;;;;;5083706;28;20107;-74
2022/06/15 02:20:17;;;;;;;10.40;8.35;;;;;;;;;;5090431;28;20040;-75
2022/06/15 02:22:45;;;;;;;10.43;8.77;;;;;;;;;;5081142;28;20651;-75
2022/06/15 02:25:13;;;;;;;12.70;8.20;;;;;;;;;;5075871;28;20486;-75
2022/06/15 02:27:40;;;;;;;11.85;7.60;;;;;;;;;;5078311;28;20044;-74
2022/06/15 02:30:10;;;;;;;12.38;7.88;;;;;;;;;;5079662;28;20048;-74
2022/06/15 02:32:37;;;;;;;12.38;7.28;;;;;;;;;;5091597;28;20055;-75
2022/06/15 02:35:04;;;;;;;12.52;8.25;;;;;;;;;;5085300;28;20398;-74
2022/06/15 02:37:30;;;;;;;10.52;7.03;;;;;;;;;;5092000;28;20040;-74
2022/06/15 02:39:56;;;;;;;10.02;7.03;;;;;;;;;;5081138;28;20047;-75
2022/06/15 02:48:11;;;;;;;11.57;7.43;;;;;;;;;;5079200;28;20044;-75
2022/06/15 02:50:45;;;;;;;11.57;7.80;;;;;;;;;;5079561;28;20087;-74
2022/06/15 02:53:14;;;;;;;10.00;7.53;;;;;;;;;;5073841;28;20456;-74
2022/06/15 02:55:40;;;;;;;10.57;7.20;;;;;;;;;;5091255;28;20138;-75
2022/06/15 02:58:11;;;;;;;9.45;7.28;;;;;;;;;;5089116;28;20504;-74
2022/06/15 03:00:38;;;;;;;10.65;7.45;;;;;;;;;;5088940;28;20132;-75
2022/06/15 03:03:04;;;;;;;10.52;7.32;;;;;;;;;;5082972;28;20076;-75
2022/06/15 03:05:30;;;;;;;11.82;8.55;;;;;;;;;;5086131;28;20461;-74
2022/06/15 03:07:57;;;;;;;10.85;7.65;;;;;;;;;;5079463;28;20478;-75
2022/06/15 03:10:23;;;;;;;11.32;7.57;;;;;;;;;;5085915;28;20097;-74
2022/06/15 03:12:49;;;;;;;11.20;8.10;;;;;;;;;;5089088;28;20097;-74
2022/06/15 03:15:15;;;;;;;10.60;7.47;;;;;;;;;;5075580;28;20556;-74
2022/06/15 03:17:41;;;;;;;12.50;9.13;;;;;;;;;;5090958;28;20040;-74
2022/06/15 03:20:09;;;;;;;13.48;9.05;;;;;;;;;;5083079;28;20032;-74
2022/06/15 03:22:35;;;;;;;15.57;9.30;;;;;;;;;;5081175;28;20074;-74
2022/06/15 03:25:01;;;;;;;10.98;7.70;;;;;;;;;;5081660;28;20040;-73
2022/06/15 03:27:28;;;;;;;11.73;8.77;;;;;;;;;;5085835;28;20044;-74
2022/06/15 03:29:54;;;;;;;12.90;8.13;;;;;;;;;;5072270;28;20041;-74
2022/06/15 03:32:20;;;;;;;11.27;8.75;;;;;;;;;;5082460;28;20032;-74
2022/06/15 03:34:46;;;;;;;10.23;7.03;;;;;;;;;;5090381;28;20036;-74
2022/06/15 03:37:12;;;;;;;13.30;9.20;;;;;;;;;;5083725;28;20457;-74
2022/06/15 03:39:39;;;;;;;10.48;7.90;;;;;;;;;;5071477;28;20207;-73
2022/06/15 03:42:14;;;;;;;10.57;8.00;;;;;;;;;;5084682;28;20055;-74
2022/06/15 03:44:41;;;;;;;11.63;8.35;;;;;;;;;;5082457;28;20562;-74
2022/06/15 03:47:28;;;;;;;12.45;8.43;;;;;;;;;;5081239;28;20212;-74
2022/06/15 03:49:54;;;;;;;13.40;8.25;;;;;;;;;;5082454;28;20079;-74
2022/06/15 03:52:22;;;;;;;11.90;9.13;;;;;;;;;;5084052;28;20542;-74
2022/06/15 03:54:48;;;;;;;11.60;8.75;;;;;;;;;;5077397;28;20090;-74
2022/06/15 03:57:15;;;;;;;10.05;8.45;;;;;;;;;;5079934;28;20090;-74
2022/06/15 03:59:42;;;;;;;13.10;8.20;;;;;;;;;;5088432;28;20155;-74
2022/06/15 04:02:09;;;;;;;14.02;9.55;;;;;;;;;;5088878;28;20096;-73
2022/06/15 04:04:35;;;;;;;10.05;7.97;;;;;;;;;;5082788;28;20034;-75
2022/06/15 04:07:01;;;;;;;11.15;9.13;;;;;;;;;;5084905;28;20529;-74
2022/06/15 04:09:28;;;;;;;14.27;9.00;;;;;;;;;;5088901;28;20511;-74
2022/06/15 04:12:08;;;;;;;14.20;9.27;;;;;;;;;;5078414;28;20074;-73
2022/06/15 04:14:37;;;;;;;;;;;;;;;;;;5083490;28;20482;-74
2022/06/15 04:17:05;;;;;;;12.43;9.07;;;;;;;;;;5073815;28;19970;-75
2022/06/15 04:19:32;;;;;;;11.60;9.18;;;;;;;;;;5088496;28;20095;-74
2022/06/15 04:21:59;;;;;;;15.20;9.45;;;;;;;;;;5077981;28;20052;-74
2022/06/15 04:24:27;;;;;;;11.40;8.63;;;;;;;;;;5073936;28;20173;-74
2022/06/15 04:26:53;;;;;;;11.73;8.82;;;;;;;;;;5074653;28;20375;-74
2022/06/15 04:29:20;;;;;;;13.13;9.32;;;;;;;;;;5080011;28;20056;-74
2022/06/15 04:31:46;;;;;;;14.05;8.75;;;;;;;;;;5077904;28;20035;-74
2022/06/15 04:34:13;;;;;;;13.13;8.77;;;;;;;;;;5076985;28;20032;-75
2022/06/15 04:36:40;;;;;;;12.20;8.63;;;;;;;;;;5079197;28;20040;-74
2022/06/15 04:39:08;;;;;;;11.68;9.02;;;;;;;;;;5076588;28;20040;-74
2022/06/15 04:41:36;;;;;;;11.38;8.27;;;;;;;;;;5075490;28;20047;-74
2022/06/15 04:44:03;;;;;;;10.73;7.50;;;;;;;;;;5072696;28;20036;-74
2022/06/15 04:46:29;;;;;;;13.13;8.48;;;;;;;;;;5065459;28;20036;-74
2022/06/15 04:48:56;;;;;;;12.95;8.70;;;;;;;;;;5080472;28;20039;-74
2022/06/15 04:51:23;;;;;;;15.07;8.82;;;;;;;;;;5085640;28;20501;-74
2022/06/15 04:53:52;;;;;;;15.30;9.55;;;;;;;;;;5087410;28;20044;-74
2022/06/15 04:56:18;;;;;;;13.27;8.57;;;;;;;;;;5075651;28;20282;-74
2022/06/15 04:58:46;;;;;;;15.32;7.85;;;;;;;;;;5081229;28;20044;-74
2022/06/15 05:01:13;;;;;;;14.70;9.45;;;;;;;;;;5084132;28;20035;-73
2022/06/15 05:03:40;;;;;;;10.27;7.90;;;;;;;;;;5084024;28;20050;-74
2022/06/15 05:06:32;;;;;;;12.38;7.45;;;;;;;;;;5080249;28;20179;-74
2022/06/15 05:08:59;;;;;;;9.50;7.45;;;;;;;;;;5079555;28;20056;-74
2022/06/15 05:11:26;;;;;;;11.85;7.07;;;;;;;;;;5082926;28;20149;-75
2022/06/15 05:13:53;;;;;;;11.05;7.70;;;;;;;;;;5089165;28;20043;-74
2022/06/15 05:16:19;;;;;;;9.60;6.93;;;;;;;;;;5082418;28;20032;-74
2022/06/15 05:18:46;;;;;;;9.48;6.60;;;;;;;;;;5081653;28;20081;-74
2022/06/15 05:21:13;;;;;;;10.88;6.72;;;;;;;;;;5081072;28;20082;-74
2022/06/15 05:23:39;;;;;;;10.40;6.78;;;;;;;;;;5079185;28;20513;-73
2022/06/15 05:26:05;;;;;;;10.23;6.13;;;;;;;;;;5074156;28;20079;-74
2022/06/15 05:28:31;;;;;;;8.60;6.35;;;;;;;;;;5081570;28;20041;-74
2022/06/15 05:31:09;;;;;;;9.90;6.43;;;;;;;;;;5064805;28;20055;-74
2022/06/15 05:33:36;;;;;;;10.40;7.10;;;;;;;;;;5077715;28;20546;-74
2022/06/15 05:36:08;;;;;;;8.55;5.82;;;;;;;;;;5084729;28;20119;-74
2022/06/15 05:38:35;;;;;;;12.90;6.20;;;;;;;;;;5085565;28;20062;-74
2022/06/15 05:41:02;;;;;;;10.55;5.05;;;;;;;;;;5074140;28;20051;-74
2022/06/15 05:43:28;;;;;;;9.35;6.20;;;;;;;;;;5061896;28;20486;-74
2022/06/15 05:45:55;;;;;;;8.75;5.65;;;;;;;;;;5084047;28;20047;-74
2022/06/15 05:48:21;;;;;;;6.95;4.78;;;;;;;;;;5086208;28;20036;-74
2022/06/15 05:50:47;;;;;;;8.43;4.82;;;;;;;;;;5083653;28;20047;-74
2022/06/15 05:53:13;;;;;;;10.32;6.15;;;;;;;;;;5086175;28;20044;-74
2022/06/15 05:55:39;;;;;;;9.43;5.55;;;;;;;;;;5078619;28;20386;-75
2022/06/15 05:58:06;;;;;;;9.82;5.00;;;;;;;;;;5075610;28;20039;-74
2022/06/15 06:00:32;;;;;;;8.27;5.63;;;;;;;;;;5079506;28;20040;-74
2022/06/15 06:02:58;;;;;;;6.20;4.68;;;;;;;;;;5084527;28;20105;-75
2022/06/15 06:05:24;;;;;;;7.22;4.63;;;;;;;;;;5080761;28;20140;-75
2022/06/15 06:07:51;;;;;;;8.63;5.55;;;;;;;;;;5085204;28;20043;-74
2022/06/15 06:10:17;;;;;;;8.02;4.40;;;;;;;;;;5072069;28;20052;-73
2022/06/15 06:12:43;;;;;;;8.00;5.93;;;;;;;;;;5078070;28;20370;-74
2022/06/15 06:15:09;;;;;;;9.13;5.32;;;;;;;;;;5086084;28;20125;-75
2022/06/15 06:17:35;;;;;;;7.35;5.15;;;;;;;;;;5076821;28;20032;-75
2022/06/15 06:20:02;;;;;;;7.95;4.60;;;;;;;;;;5087715;28;20044;-75
2022/06/15 06:22:28;;;;;;;12.73;5.38;;;;;;;;;;5083879;28;20040;-74
2022/06/15 06:24:54;;;;;;;9.82;4.95;;;;;;;;;;5078409;28;20046;-74
2022/06/15 06:27:20;;;;;;;6.90;4.63;;;;;;;;;;5079664;28;20036;-74
2022/06/15 06:29:46;;;;;;;9.98;5.00;;;;;;;;;;5084149;28;20040;-74
2022/06/15 06:32:13;;;;;;;9.75;5.05;;;;;;;;;;5069994;28;20097;-74
2022/06/15 06:34:39;;;;;;;9.27;5.35;;;;;;;;;;5088007;28;20115;-75
2022/06/15 06:37:07;;;;;;;10.40;6.15;;;;;;;;;;5085008;28;20086;-75
2022/06/15 06:39:34;;;;;;;9.23;5.00;;;;;;;;;;5086229;28;20044;-75
2022/06/15 06:42:01;;;;;;;10.25;4.97;;;;;;;;;;5083782;28;20398;-75
2022/06/15 06:44:28;;;;;;;11.50;4.95;;;;;;;;;;5087637;28;20063;-75
2022/06/15 06:46:54;;;;;;;10.48;5.05;;;;;;;;;;5079764;28;20136;-75
2022/06/15 06:49:22;;;;;;;10.32;5.40;;;;;;;;;;5085346;28;20036;-75
2022/06/15 06:51:48;;;;;;;14.90;5.22;;;;;;;;;;5080340;28;20230;-74
2022/06/15 06:54:16;;;;;;;7.80;4.88;;;;;;;;;;5084541;28;20039;-75
2022/06/15 06:56:42;;;;;;;15.10;5.85;;;;;;;;;;5088213;28;20152;-75
2022/06/15 06:59:09;;;;;;;8.15;5.25;;;;;;;;;;5078071;28;20516;-75
2022/06/15 07:01:37;;;;;;;8.32;5.40;;;;;;;;;;5076436;28;20028;-75
2022/06/15 07:04:03;;;;;;;8.07;4.78;;;;;;;;;;5084032;28;20043;-75
2022/06/15 07:06:29;;;;;;;7.35;4.72;;;;;;;;;;5085255;28;20036;-75
2022/06/15 07:08:57;;;;;;;6.78;3.78;;;;;;;;;;5078511;28;20037;-75
2022/06/15 07:11:23;;;;;;;7.20;4.05;;;;;;;;;;5085043;28;20040;-75
2022/06/15 07:13:50;;;;;;;7.68;4.68;;;;;;;;;;5075984;28;20036;-76
2022/06/15 07:16:17;;;;;;;8.35;3.97;;;;;;;;;;5082240;28;20036;-75
2022/06/15 07:18:45;;;;;;;13.30;4.78;;;;;;;;;;5090529;28;20508;-75
2022/06/15 07:21:13;;;;;;;8.38;4.32;;;;;;;;;;5078684;28;20436;-75
2022/06/15 07:23:40;;;;;;;11.18;4.82;;;;;;;;;;5088045;28;20050;-76
2022/06/15 07:26:07;;;;;;;5.85;3.40;;;;;;;;;;5078828;28;20123;-75
2022/06/15 07:28:34;;;;;;;11.00;4.03;;;;;;;;;;5078589;28;20055;-75
2022/06/15 07:31:00;;;;;;;7.32;4.15;;;;;;;;;;5074704;28;20512;-75
2022/06/15 07:33:27;;;;;;;6.47;3.47;;;;;;;;;;5090178;28;20032;-75
2022/06/15 07:35:53;;;;;;;7.28;3.90;;;;;;;;;;5063042;28;20068;-75
2022/06/15 07:38:19;;;;;;;6.03;3.78;;;;;;;;;;5084588;28;20548;-75
2022/06/15 07:40:46;;;;;;;8.88;4.28;;;;;;;;;;5086914;28;20269;-75
2022/06/15 07:43:13;;;;;;;7.25;3.90;;;;;;;;;;5079804;28;20036;-75
2022/06/15 07:45:39;;;;;;;8.60;4.07;;;;;;;;;;5081345;28;20075;-75
2022/06/15 07:50:50;;;;;;;8.27;4.47;;;;;;;;;;5088280;28;20074;-75
2022/06/15 07:53:18;;;;;;;11.57;3.92;;;;;;;;;;5087422;28;20055;-76
2022/06/15 07:55:45;;;;;;;5.18;3.40;;;;;;;;;;5085589;28;20459;-76
2022/06/15 07:58:12;;;;;;;7.50;3.60;;;;;;;;;;5086164;28;20036;-75
2022/06/15 08:00:39;;;;;;;5.88;3.45;;;;;;;;;;5054540;28;20040;-75
2022/06/15 08:03:06;;;;;;;4.22;2.50;;;;;;;;;;5090463;28;20089;-75
2022/06/15 08:05:39;;;;;;;5.97;2.50;;;;;;;;;;5085283;28;20044;-76
2022/06/15 08:08:07;;;;;;;4.63;2.60;;;;;;;;;;5075161;28;20043;-75
2022/06/15 08:10:34;;;;;;;5.93;2.08;;;;;;;;;;5081071;28;20474;-75
2022/06/15 08:13:00;;;;;;;7.68;2.20;;;;;;;;;;5081455;28;20070;-75
2022/06/15 08:15:26;;;;;;;5.05;1.65;;;;;;;;;;5089104;28;20067;-75
2022/06/15 08:17:55;;;;;;;22.25;4.28;;;;;;;;;;5088913;28;20046;-75
2022/06/15 08:20:35;;;;;;;4.15;2.13;;;;;;;;;;5086774;28;20116;-75
2022/06/15 08:23:03;;;;;;;3.67;1.70;;;;;;;;;;5086072;28;20052;-75
2022/06/15 08:25:33;;;;;;;3.92;2.70;;;;;;;;;;5085301;28;20052;-76
2022/06/15 08:27:59;;;;;;;4.10;2.25;;;;;;;;;;5087559;28;20093;-75
2022/06/15 08:30:26;;;;;;;4.30;2.67;;;;;;;;;;5085111;28;20044;-75
2022/06/15 08:32:52;;;;;;;6.13;2.83;;;;;;;;;;5088626;28;20498;-75
2022/06/15 08:35:19;;;;;;;5.28;3.00;;;;;;;;;;5082399;28;20032;-75
2022/06/15 08:37:45;;;;;;;5.50;3.63;;;;;;;;;;5076831;28;20131;-75
2022/06/15 08:40:12;;;;;;;6.00;2.97;;;;;;;;;;5087984;28;20043;-76
2022/06/15 08:42:48;;;;;;;5.22;2.80;;;;;;;;;;5080605;28;20040;-75
2022/06/15 08:45:20;;;;;;;9.27;3.55;;;;;;;;;;5073486;28;20502;-75
2022/06/15 08:48:04;;;;;;;6.18;2.53;;;;;;;;;;5081182;28;20044;-76
2022/06/15 08:50:57;;;;;;;8.88;3.45;;;;;;;;;;5087881;28;20135;-76
2022/06/15 08:53:23;;;;;;;10.85;3.80;;;;;;;;;;5070999;28;20703;-76
2022/06/15 08:55:57;;;;;;;4.82;2.92;;;;;;;;;;5072017;28;20046;-75
2022/06/15 08:58:38;;;;;;;4.57;2.88;;;;;;;;;;5077537;28;20040;-76
2022/06/15 09:01:29;;;;;;;4.18;2.50;;;;;;;;;;5077646;28;20092;-76
2022/06/15 09:03:59;;;;;;;6.57;2.47;;;;;;;;;;5079100;28;20041;-76
2022/06/15 09:06:25;;;;;;;5.40;2.25;;;;;;;;;;5069165;28;20414;-76
2022/06/15 09:08:58;;;;;;;5.43;3.00;;;;;;;;;;5069792;28;20120;-76
2022/06/15 09:11:34;;;;;;;5.60;2.60;;;;;;;;;;5086877;28;20039;-76
2022/06/15 09:14:17;;;;;;;4.05;2.38;;;;;;;;;;5074054;28;20051;-76
2022/06/15 09:16:43;;;;;;;;;;;;;;;;;;5080906;28;20059;-76
2022/06/15 09:19:09;;;;;;;7.55;2.42;;;;;;;;;;5088853;28;19916;-76
2022/06/15 09:21:48;;;;;;;5.97;2.35;;;;;;;;;;5088583;28;20078;-76
2022/06/15 09:24:22;;;;;;;5.93;2.70;;;;;;;;;;5075136;28;20071;-76
2022/06/15 09:26:52;;;;;;;4.25;2.35;;;;;;;;;;5088432;28;20042;-76
2022/06/15 09:29:22;;;;;;;3.92;2.38;;;;;;;;;;5077257;28;20393;-75
2022/06/15 09:32:11;;;;;;;3.28;2.33;;;;;;;;;;5084440;28;20047;-75
2022/06/15 09:34:39;;;;;;;5.80;3.00;;;;;;;;;;5087913;28;20043;-76
2022/06/15 09:37:13;;;;;;;4.43;2.50;;;;;;;;;;5070827;28;20043;-76
2022/06/15 09:39:40;;;;;;;4.63;2.67;;;;;;;;;;5067597;28;20494;-75
2022/06/15 09:42:26;;;;;;;4.15;2.65;;;;;;;;;;5078352;28;20048;-75
2022/06/15 09:44:52;;;;;;;5.85;3.33;;;;;;;;;;5085965;28;20056;-75
2022/06/15 09:47:21;;;;;;;8.20;3.70;;;;;;;;;;5080927;28;20055;-75
2022/06/15 09:50:06;;;;;;;9.05;3.67;;;;;;;;;;5069367;28;20047;-76
2022/06/15 09:52:44;;;;;;;5.82;2.97;;;;;;;;;;5084163;28;20044;-75
2022/06/15 09:55:13;;;;;;;11.80;4.65;;;;;;;;;;5078012;28;20495;-75
2022/06/15 09:57:40;;;;;;;6.53;3.15;;;;;;;;;;5088062;28;20051;-76
2022/06/15 10:00:09;;;;;;;5.13;2.92;;;;;;;;;;5088722;28;20043;-77
2022/06/15 10:02:37;;;;;;;6.05;2.92;;;;;;;;;;5075470;28;20110;-76
2022/06/15 10:05:05;;;;;;;5.60;2.60;;;;;;;;;;5086277;28;20038;-76
2022/06/15 10:07:31;;;;;;;5.28;2.95;;;;;;;;;;5077890;28;20414;-76
2022/06/15 10:10:24;;;;;;;6.38;3.00;;;;;;;;;;5085767;28;20102;-76
2022/06/15 10:12:58;;;;;;;7.15;2.95;;;;;;;;;;5071185;28;20414;-76
2022/06/15 10:15:31;;;;;;;5.28;3.08;;;;;;;;;;5081808;28;20383;-75
2022/06/15 10:18:00;;;;;;;3.97;2.55;;;;;;;;;;5090989;28;20036;-76
2022/06/15 10:20:38;;;;;;;5.40;3.25;;;;;;;;;;5077767;28;20099;-76
2022/06/15 10:23:16;;;;;;;5.35;3.00;;;;;;;;;;5082073;28;20127;-76
2022/06/15 10:25:48;;;;;;;7.15;3.65;;;;;;;;;;5085546;28;20101;-76
2022/06/15 10:28:16;;;;;;;7.55;3.03;;;;;;;;;;5087866;28;20043;-76
2022/06/15 10:30:57;;;;;;;12.25;3.80;;;;;;;;;;5080369;28;20502;-75
2022/06/15 10:33:23;;;;;;;6.88;4.00;;;;;;;;;;5085045;28;20028;-76
2022/06/15 10:36:01;;;;;;;9.43;3.78;;;;;;;;;;5089493;28;20435;-76
2022/06/15 10:38:28;;;;;;;6.18;3.63;;;;;;;;;;5086217;28;20040;-76
2022/06/15 10:40:56;;;;;;;6.13;3.13;;;;;;;;;;5084587;28;20056;-76
2022/06/15 10:43:30;;;;;;;12.82;4.25;;;;;;;;;;5090853;28;20067;-76
2022/06/15 10:45:58;;;;;;;4.53;2.95;;;;;;;;;;5090672;28;20040;-76
2022/06/15 10:48:28;;;;;;;6.75;3.63;;;;;;;;;;5092169;28;20510;-77
2022/06/15 10:51:15;;;;;;;5.00;3.00;;;;;;;;;;5091476;28;20051;-76
2022/06/15 10:53:43;;;;;;;8.40;3.65;;;;;;;;;;5082991;28;20119;-76
2022/06/15 11:02:15;;;;;;;4.28;3.20;;;;;;;;;;5079191;28;20048;-77
2022/06/15 11:04:47;;;;;;;6.68;3.10;;;;;;;;;;5085339;28;20532;-76
2022/06/15 11:07:16;;;;;;;7.85;3.30;;;;;;;;;;5086086;28;20032;-76
2022/06/15 11:09:55;;;;;;;5.47;3.42;;;;;;;;;;5086015;28;20047;-76
2022/06/15 11:12:30;;;;;;;6.25;2.90;;;;;;;;;;5080699;28;20152;-77
2022/06/15 11:15:03;;;;;;;6.88;3.47;;;;;;;;;;5085071;28;20405;-77
2022/06/15 11:20:25;;;;;;;7.32;2.78;;;;;;;;;;5081402;28;20043;-76
2022/06/15 11:22:53;;;;;;;7.88;3.00;;;;;;;;;;5090248;28;20520;-77
2022/06/15 11:25:22;;;;;;;5.70;3.03;;;;;;;;;;5082132;28;20167;-76
2022/06/15 11:28:00;;;;;;;4.10;2.75;;;;;;;;;;5083402;28;20100;-75
2022/06/15 11:30:31;;;;;;;5.78;3.38;;;;;;;;;;5090847;28;20093;-76
2022/06/15 11:33:33;;;;;;;10.10;3.28;;;;;;;;;;5084355;28;20051;-77
2022/06/15 11:36:17;;;;;;;6.68;3.42;;;;;;;;;;5061080;28;20033;-76
2022/06/15 11:38:53;;;;;;;7.05;2.50;;;;;;;;;;5084195;28;20050;-76
2022/06/15 11:41:28;;;;;;;4.63;2.97;;;;;;;;;;5080134;28;20047;-77
2022/06/15 11:43:55;;;;;;;5.43;2.90;;;;;;;;;;5088668;28;20494;-77
2022/06/15 11:46:40;;;;;;;5.45;2.90;;;;;;;;;;5089767;28;20173;-77
2022/06/15 11:49:22;;;;;;;3.92;2.78;;;;;;;;;;5087570;28;20040;-77
2022/06/15 11:51:51;;;;;;;4.47;2.90;;;;;;;;;;5083984;28;20055;-77
2022/06/15 11:54:17;;;;;;;5.93;3.45;;;;;;;;;;5082695;28;20115;-66
2022/06/15 11:56:58;;;;;;;6.22;3.33;;;;;;;;;;5083123;28;20677;-66
2022/06/15 11:59:43;;;;;;;4.47;2.90;;;;;;;;;;5088429;28;20047;-67
2022/06/15 12:02:24;;;;;;;6.63;2.97;;;;;;;;;;5089176;28;20394;-66
2022/06/15 12:05:09;;;;;;;6.40;3.03;;;;;;;;;;5066985;28;20195;-67
2022/06/15 12:07:42;;;;;;;7.65;3.90;;;;;;;;;;5082835;28;20436;-66
2022/06/15 12:10:14;;;;;;;6.13;2.88;;;;;;;;;;5081352;28;20032;-66
2022/06/15 12:12:50;;;;;;;5.90;2.53;;;;;;;;;;5080119;28;20049;-66
2022/06/15 12:15:19;;;;;;;6.45;2.85;;;;;;;;;;5087633;28;20047;-66
2022/06/15 12:17:48;;;;;;;4.65;2.80;;;;;;;;;;5075186;28;20040;-66
2022/06/15 12:20:39;;;;;;;6.13;4.22;;;;;;;;;;5079137;28;20051;-67
2022/06/15 12:23:17;;;;;;;6.40;3.25;;;;;;;;;;5082123;28;20382;-66
2022/06/15 12:25:49;;;;;;;5.18;3.38;;;;;;;;;;5086896;28;20044;-66
2022/06/15 12:28:15;;;;;;;7.65;3.30;;;;;;;;;;5086709;28;20040;-67
2022/06/15 12:30:51;;;;;;;5.72;2.58;;;;;;;;;;5082108;28;20032;-66
2022/06/15 12:33:28;;;;;;;5.75;3.10;;;;;;;;;;5078430;28;20098;-67
2022/06/15 12:35:59;;;;;;;8.05;3.00;;;;;;;;;;5084410;28;20490;-66
2022/06/15 12:38:43;;;;;;;4.78;3.13;;;;;;;;;;5081473;28;20299;-66
2022/06/15 12:42:09;;;;;;;5.88;3.17;;;;;;;;;;5081776;28;20055;-66
2022/06/15 12:43:58;;;;;;;4.93;3.15;;;;;;;;;;5090120;28;20052;-66
2022/06/15 12:46:25;;;;;;;7.43;3.28;;;;;;;;;;5076059;28;20043;-66
2022/06/15 12:48:52;;;;;;;5.43;3.00;;;;;;;;;;5081049;28;20036;-66
2022/06/15 12:51:36;;;;;;;4.10;3.30;;;;;;;;;;5085411;28;20056;-67
2022/06/15 12:54:21;;;;;;;7.07;3.38;;;;;;;;;;5070090;28;20045;-66
2022/06/15 12:57:00;;;;;;;7.55;3.10;;;;;;;;;;5083251;28;20040;-66
2022/06/15 12:59:30;;;;;;;5.15;3.55;;;;;;;;;;5084932;28;20048;-66
2022/06/15 13:01:56;;;;;;;4.78;2.63;;;;;;;;;;5075884;28;20038;-67
2022/06/15 13:04:31;;;;;;;5.63;3.33;;;;;;;;;;5087043;28;20420;-66
2022/06/15 13:07:16;;;;;;;9.93;3.17;;;;;;;;;;5088927;28;20096;-66
2022/06/15 13:09:42;;;;;;;12.95;4.32;;;;;;;;;;5086982;28;20374;-66
2022/06/15 13:12:09;;;;;;;8.07;3.58;;;;;;;;;;5080071;28;20036;-66
2022/06/15 13:14:45;;;;;;;12.75;4.32;;;;;;;;;;5081076;28;20592;-66
2022/06/15 13:17:11;;;;;;;4.93;2.75;;;;;;;;;;5087045;28;20114;-66
2022/06/15 13:19:41;;;;;;;7.43;3.20;;;;;;;;;;5080572;28;20040;-66
2022/06/15 13:22:10;;;;;;;4.38;3.00;;;;;;;;;;5085165;28;20248;-67
2022/06/15 13:24:56;;;;;;;4.57;2.67;;;;;;;;;;5087747;28;20444;-66
2022/06/15 13:27:25;;;;;;;4.32;2.28;;;;;;;;;;5078842;28;20032;-66
2022/06/15 13:30:06;;;;;;;4.50;2.83;;;;;;;;;;5083510;28;20052;-66
2022/06/15 13:32:51;;;;;;;5.25;3.58;;;;;;;;;;5088487;28;20042;-66
2022/06/15 13:35:18;;;;;;;4.80;2.42;;;;;;;;;;5084261;28;20075;-66
2022/06/15 13:37:55;;;;;;;5.72;2.97;;;;;;;;;;5082140;28;20533;-67
2022/06/15 13:40:21;;;;;;;4.88;2.88;;;;;;;;;;5083053;28;20039;-67
2022/06/15 13:42:48;;;;;;;3.63;2.55;;;;;;;;;;5077900;28;20043;-66
2022/06/15 13:45:34;;;;;;;6.50;2.95;;;;;;;;;;5083387;28;20374;-67
2022/06/15 13:48:03;;;;;;;7.07;3.00;;;;;;;;;;5079410;28;20519;-66
2022/06/15 13:50:37;;;;;;;4.10;2.60;;;;;;;;;;5075360;28;20058;-67
2022/06/15 13:53:05;;;;;;;7.63;3.05;;;;;;;;;;5067998;28;20052;-66
2022/06/15 13:55:49;;;;;;;3.40;2.67;;;;;;;;;;5076753;28;20452;-66
2022/06/15 13:58:34;;;;;;;6.80;3.25;;;;;;;;;;5077216;28;20116;-67
2022/06/15 14:01:19;;;;;;;5.65;2.78;;;;;;;;;;5065542;28;20070;-66
2022/06/15 14:03:45;;;;;;;6.35;3.13;;;;;;;;;;5083801;28;20036;-67
2022/06/15 14:06:23;;;;;;;3.80;2.83;;;;;;;;;;5076366;28;20044;-64
2022/06/15 14:09:03;;;;;;;8.27;3.67;;;;;;;;;;5084278;28;20044;-65
2022/06/15 14:11:29;;;;;;;8.05;3.25;;;;;;;;;;5080735;28;20698;-65
2022/06/15 14:14:24;;;;;;;3.90;2.40;;;;;;;;;;5087086;28;20040;-65
2022/06/15 14:16:54;;;;;;;3.72;2.70;;;;;;;;;;5068582;28;20560;-65
2022/06/15 14:19:24;;;;;;;5.70;2.85;;;;;;;;;;5079489;28;20043;-66
2022/06/15 14:22:05;;;;;;;7.55;2.58;;;;;;;;;;5084440;28;20110;-66
2022/06/15 14:24:33;;;;;;;6.90;2.80;;;;;;;;;;5081450;28;20119;-66
2022/06/15 14:27:00;;;;;;;5.28;2.60;;;;;;;;;;5080701;28;20436;-66
2022/06/15 14:29:32;;;;;;;4.65;3.10;;;;;;;;;;5085837;28;20398;-66
2022/06/15 14:31:58;;;;;;;;;;;;;;;;;;5074417;28;20278;-66
2022/06/15 14:34:27;;;;;;;3.20;2.25;;;;;;;;;;5085519;28;19973;-65
2022/06/15 14:36:58;;;;;;;4.88;2.78;;;;;;;;;;5086294;28;20061;-66
2022/06/15 14:39:26;;;;;;;7.15;2.83;;;;;;;;;;5087889;28;20028;-66
2022/06/15 14:42:03;;;;;;;4.80;2.67;;;;;;;;;;5081574;28;20389;-65
2022/06/15 14:44:29;;;;;;;4.28;2.05;;;;;;;;;;5086988;28;20090;-66
2022/06/15 14:46:57;;;;;;;5.13;3.03;;;;;;;;;;5078210;28;20041;-66
2022/06/15 14:49:31;;;;;;;4.38;2.70;;;;;;;;;;5086632;28;20040;-66
2022/06/15 14:52:13;;;;;;;5.50;2.97;;;;;;;;;;5066728;28;20321;-66
2022/06/15 14:54:40;;;;;;;5.50;2.63;;;;;;;;;;5086583;28;20072;-66
2022/06/15 14:57:06;;;;;;;4.05;2.88;;;;;;;;;;5075900;28;20124;-66
2022/06/15 14:59:47;;;;;;;3.90;2.35;;;;;;;;;;5087012;28;20123;-66
2022/06/15 15:02:13;;;;;;;4.35;2.30;;;;;;;;;;5088141;28;20571;-66
2022/06/15 15:04:42;;;;;;;9.13;2.95;;;;;;;;;;5083545;28;20044;-66
2022/06/15 15:10:19;;;;;;;4.97;2.70;;;;;;;;;;5079182;28;20044;-65
2022/06/15 15:12:46;;;;;;;4.68;2.70;;;;;;;;;;5089721;28;20059;-66
2022/06/15 15:15:12;;;;;;;6.47;2.38;;;;;;;;;;5079222;28;20032;-66
2022/06/15 15:18:08;;;;;;;3.75;2.20;;;;;;;;;;5084073;28;20054;-65